PST,Max TemperatureF,Mean TemperatureF,Min TemperatureF,Max Dew PointF,MeanDew PointF,Min DewpointF,Max Humidity, Mean Humidity, Min Humidity, Max Sea Level PressureIn, Mean Sea Level PressureIn, Min Sea Level PressureIn, Max VisibilityMiles, Mean VisibilityMiles, Min VisibilityMiles, Max Wind SpeedMPH, Mean Wind SpeedMPH, Max Gust SpeedMPH,PrecipitationIn, CloudCover, Events, WindDirDegrees
2013-2-1,48,36,23,34,27,20,92,74,56,30.49,30.39,30.26,10,10,9,10,5,13,0.00,0,,1
2013-2-2,47,36,24,34,26,20,92,76,60,30.52,30.43,30.30,10,10,10,12,7,14,0.00,0,,356
2013-2-3,35,30,24,31,27,21,92,87,82,30.28,30.22,30.13,10,8,2,9,2,10,0.00,6,,344
2013-2-4,39,35,30,31,29,27,100,88,76,30.18,30.10,29.98,10,3,0,9,3,10,0.00,6,Fog,29
2013-2-5,44,36,27,34,29,25,92,81,70,29.98,29.89,29.84,9,3,0,10,4,13,0.00,5,Fog,349
2013-2-6,49,39,28,32,29,25,92,69,46,30.07,30.01,29.93,10,10,9,14,6,17,0.00,2,,169
2013-2-7,48,40,31,32,29,26,85,66,46,30.08,29.97,29.89,10,10,10,9,4,9,0.00,3,,357
2013-2-8,46,36,25,29,25,22,85,62,38,30.19,30.15,30.09,10,10,8,12,4,15,0.00,0,,27
2013-2-9,42,33,24,27,24,20,92,73,53,30.23,30.16,30.09,10,10,10,10,3,12,0.00,1,,344
2013-2-10,48,36,24,28,25,21,92,67,42,30.32,30.27,30.23,10,10,7,9,4,12,0.00,0,,13
2013-2-11,42,32,22,29,25,19,92,75,57,30.28,30.24,30.21,10,9,7,9,5,10,0.00,1,,349
2013-2-12,49,38,26,33,29,24,92,75,58,30.34,30.28,30.19,10,8,5,20,6,26,0.00,3,,191
2013-2-13,56,44,32,34,28,23,70,53,35,30.43,30.28,30.16,10,10,10,22,7,26,0.00,0,,247
2013-2-14,50,39,27,31,28,23,85,64,42,30.56,30.49,30.40,10,10,10,12,3,14,0.00,2,,7
2013-2-15,52,40,27,34,29,24,92,70,48,30.57,30.46,30.28,10,10,10,9,5,13,0.00,0,,356
2013-2-16,53,40,26,35,28,23,92,64,36,30.24,30.10,29.99,10,10,10,22,7,26,0.00,1,,279
2013-2-17,52,41,30,28,24,20,75,53,30,30.14,30.10,30.04,10,10,10,15,5,17,0.00,2,,237
2013-2-18,44,35,25,30,26,21,85,69,53,30.11,29.95,29.81,10,10,10,10,5,14,0.00,4,,331
2013-2-19,46,37,28,30,27,21,92,73,53,30.05,29.83,29.77,20,10,10,14,5,17,T,5,,333
2013-2-20,47,37,26,27,23,19,78,58,37,30.03,29.99,29.96,10,10,10,12,5,15,0.00,0,,134
2013-2-21,49,36,23,29,26,19,88,65,42,30.05,30.01,29.98,10,10,10,14,5,18,0.00,2,,218
2013-2-22,48,41,34,34,29,21,70,62,53,29.99,29.82,29.66,10,10,10,30,12,38,0.00,5,,200
2013-2-23,53,43,32,26,22,19,64,47,30,30.27,30.04,29.80,10,10,10,24,10,30,0.00,0,,258
2013-2-24,45,36,26,27,25,22,85,65,45,30.32,30.24,30.04,10,10,10,16,8,20,0.00,2,,171
2013-2-25,49,41,32,33,27,20,89,60,31,30.18,29.98,29.89,10,10,7,32,12,41,0.01,3,Snow,223
2013-2-26,48,37,25,26,23,20,88,60,31,30.34,30.27,30.20,10,10,10,15,7,18,0.00,1,,171
2013-2-27,51,38,25,31,26,22,85,62,39,30.31,30.26,30.21,10,10,10,9,4,12,0.00,2,,109
2013-2-28,47,43,38,43,39,31,92,81,70,30.34,30.30,30.26,10,7,0,12,3,14,0.16,8,Fog-Rain,171